createdAt,value
2019-04-29T00:00:57.173Z,12.63
2019-04-29T00:03:25.160Z,13.03
2019-04-29T00:05:53.433Z,12.00
2019-04-29T00:08:21.898Z,13.57
2019-04-29T00:10:49.790Z,19.53
2019-04-29T00:13:18.181Z,17.85
2019-04-29T00:15:55.575Z,12.70
2019-04-29T00:18:42.971Z,11.97
2019-04-29T00:21:11.574Z,14.03
2019-04-29T00:23:40.176Z,10.83
2019-04-29T00:26:08.340Z,11.27
2019-04-29T00:28:36.554Z,14.37
2019-04-29T00:31:05.064Z,12.83
2019-04-29T00:33:32.970Z,13.10
2019-04-29T00:36:00.871Z,13.57
2019-04-29T00:38:47.109Z,10.37
2019-04-29T00:41:34.586Z,10.57
2019-04-29T00:44:07.851Z,8.83
2019-04-29T00:46:36.657Z,9.83
2019-04-29T00:49:05.155Z,10.03
2019-04-29T00:51:33.033Z,11.40
2019-04-29T00:54:06.281Z,12.40
2019-04-29T00:56:34.554Z,11.67
2019-04-29T00:59:02.464Z,15.63
2019-04-29T01:01:30.764Z,11.87
2019-04-29T01:03:59.073Z,11.67
2019-04-29T01:06:27.409Z,14.53
2019-04-29T01:08:55.603Z,16.13
2019-04-29T01:11:24.074Z,14.67
2019-04-29T01:13:52.685Z,14.43
2019-04-29T01:16:21.207Z,13.80
2019-04-29T01:18:49.425Z,15.90
2019-04-29T01:21:17.739Z,14.00
2019-04-29T01:23:46.010Z,16.40
2019-04-29T01:26:39.458Z,14.13
2019-04-29T01:29:07.958Z,15.07
2019-04-29T01:31:36.174Z,18.03
2019-04-29T01:34:28.573Z,13.43
2019-04-29T01:36:56.455Z,14.57
2019-04-29T01:39:31.788Z,12.03
2019-04-29T01:42:12.225Z,13.97
2019-04-29T01:44:40.659Z,13.83
2019-04-29T01:47:09.107Z,15.50
2019-04-29T01:49:37.426Z,11.80
2019-04-29T01:52:05.633Z,18.13
2019-04-29T01:54:33.945Z,15.17
2019-04-29T01:57:02.546Z,15.50
2019-04-29T01:59:30.621Z,16.33
2019-04-29T02:01:58.581Z,16.10
2019-04-29T02:04:26.488Z,14.00
2019-04-29T02:06:55.060Z,17.93
2019-04-29T02:09:28.915Z,15.90
2019-04-29T02:11:57.569Z,13.37
2019-04-29T02:14:25.833Z,14.23
2019-04-29T02:16:54.233Z,17.90
2019-04-29T02:19:22.806Z,19.93
2019-04-29T02:22:08.809Z,16.67
2019-04-29T02:24:38.514Z,15.77
2019-04-29T02:27:07.206Z,18.23
2019-04-29T02:29:35.366Z,14.73
2019-04-29T02:32:03.965Z,15.23
2019-04-29T02:34:32.806Z,18.30
2019-04-29T02:37:03.291Z,15.70
2019-04-29T02:39:37.386Z,14.70
2019-04-29T02:42:23.816Z,14.97
2019-04-29T02:44:52.715Z,13.73
2019-04-29T02:47:20.901Z,14.90
2019-04-29T02:49:49.277Z,16.57
2019-04-29T02:52:16.795Z,15.50
2019-04-29T02:54:45.737Z,14.47
2019-04-29T02:57:33.211Z,13.03
2019-04-29T03:00:10.765Z,13.20
2019-04-29T03:02:47.634Z,15.03
2019-04-29T03:05:18.451Z,13.53
2019-04-29T03:07:46.705Z,18.47
2019-04-29T03:10:15.238Z,15.63
2019-04-29T03:12:43.516Z,14.53
2019-04-29T03:15:12.325Z,14.70
2019-04-29T03:17:40.855Z,15.70
2019-04-29T03:20:15.268Z,12.17
2019-04-29T03:22:44.252Z,13.27
2019-04-29T03:25:12.446Z,11.90
2019-04-29T03:27:40.389Z,17.80
2019-04-29T03:30:08.927Z,16.57
2019-04-29T03:32:37.561Z,16.70
2019-04-29T03:35:06.478Z,14.07
2019-04-29T03:37:34.758Z,15.50
2019-04-29T03:40:02.651Z,20.17
2019-04-29T03:42:30.883Z,19.10
2019-04-29T03:44:59.066Z,17.40
2019-04-29T03:47:27.339Z,16.67
2019-04-29T03:49:55.976Z,15.63
2019-04-29T03:52:23.938Z,18.43
2019-04-29T03:54:52.564Z,17.87
2019-04-29T03:57:21.291Z,20.33
2019-04-29T03:59:49.487Z,19.10
2019-04-29T04:02:27.669Z,23.60
2019-04-29T04:05:20.430Z,32.43
2019-04-29T04:07:55.977Z,30.97
2019-04-29T04:10:23.936Z,31.60
2019-04-29T04:12:52.238Z,29.50
2019-04-29T04:15:20.538Z,50.00
2019-04-29T04:18:08.547Z,67.90
2019-04-29T04:20:37.326Z,105.77
2019-04-29T04:23:06.016Z,86.70
2019-04-29T04:25:34.396Z,90.83
2019-04-29T04:28:03.040Z,38.37
2019-04-29T04:30:31.265Z,27.93
2019-04-29T04:32:59.854Z,30.10
2019-04-29T04:35:28.147Z,25.57
2019-04-29T04:37:56.740Z,32.97
2019-04-29T04:40:30.682Z,38.37
2019-04-29T04:42:59.026Z,49.03
2019-04-29T04:45:27.211Z,41.13
2019-04-29T04:47:55.495Z,48.23
2019-04-29T04:50:23.716Z,62.90
2019-04-29T04:52:52.290Z,54.43
2019-04-29T04:55:22.376Z,35.73
2019-04-29T04:57:50.584Z,29.53
2019-04-29T05:00:21.926Z,33.13
2019-04-29T05:02:50.514Z,22.73
2019-04-29T05:05:19.111Z,23.07
2019-04-29T05:07:46.609Z,23.73
2019-04-29T05:10:15.189Z,24.73
2019-04-29T05:12:43.779Z,21.20
2019-04-29T05:15:20.762Z,21.03
2019-04-29T05:17:49.001Z,22.37
2019-04-29T05:20:16.974Z,28.70
2019-04-29T05:22:59.179Z,31.77
2019-04-29T05:25:29.194Z,26.80
2019-04-29T05:27:56.826Z,22.67
2019-04-29T05:30:25.139Z,24.90
2019-04-29T05:32:53.768Z,24.93
2019-04-29T05:35:24.876Z,19.30
2019-04-29T05:38:05.482Z,21.93
2019-04-29T05:40:42.316Z,25.07
2019-04-29T05:43:12.737Z,22.93
2019-04-29T05:45:50.825Z,28.97
2019-04-29T05:48:19.436Z,26.90
2019-04-29T05:50:59.814Z,28.47
2019-04-29T05:53:41.210Z,27.33
2019-04-29T05:56:09.985Z,32.40
2019-04-29T05:58:39.270Z,24.20
2019-04-29T06:01:15.721Z,30.43
2019-04-29T06:03:44.544Z,26.90
2019-04-29T06:06:12.575Z,28.67
2019-04-29T06:08:40.582Z,30.90
2019-04-29T06:11:08.680Z,32.37
2019-04-29T06:13:36.686Z,30.07
2019-04-29T06:16:04.834Z,31.47
2019-04-29T06:18:32.725Z,39.23
2019-04-29T06:21:08.865Z,65.03
2019-04-29T06:23:31.130Z,41.90
2019-04-29T06:25:59.287Z,40.53
2019-04-29T06:28:28.189Z,43.00
2019-04-29T06:30:56.532Z,38.33
2019-04-29T06:33:29.225Z,37.63
2019-04-29T06:35:57.045Z,36.47
2019-04-29T06:38:25.984Z,35.57
2019-04-29T06:40:54.197Z,43.93
2019-04-29T06:43:24.475Z,32.63
2019-04-29T06:45:52.928Z,38.10
2019-04-29T06:48:21.158Z,36.47
2019-04-29T06:50:49.815Z,34.33
2019-04-29T06:53:21.250Z,30.50
2019-04-29T06:55:48.199Z,35.50
2019-04-29T06:58:16.694Z,34.10
2019-04-29T07:00:44.979Z,31.13
2019-04-29T07:03:13.578Z,40.20
2019-04-29T07:05:41.524Z,41.00
2019-04-29T07:08:09.706Z,37.17
2019-04-29T07:10:38.029Z,44.50
2019-04-29T07:13:06.187Z,37.10
2019-04-29T07:15:34.960Z,32.70
2019-04-29T07:18:03.470Z,36.97
2019-04-29T07:20:32.548Z,32.97
2019-04-29T07:23:02.508Z,33.97
2019-04-29T07:25:30.444Z,31.70
2019-04-29T07:27:59.203Z,32.30
2019-04-29T07:30:29.291Z,31.93
2019-04-29T07:32:58.150Z,28.23
2019-04-29T07:35:26.126Z,30.27
2019-04-29T07:37:53.596Z,29.80
2019-04-29T07:40:22.102Z,26.63
2019-04-29T07:42:50.362Z,30.97
2019-04-29T07:45:28.159Z,25.83
2019-04-29T07:47:57.168Z,29.83
2019-04-29T07:50:26.624Z,24.83
2019-04-29T07:52:56.097Z,28.47
2019-04-29T07:55:25.891Z,26.73
2019-04-29T07:57:54.760Z,26.03
2019-04-29T08:00:32.704Z,28.20
2019-04-29T08:03:02.171Z,23.73
2019-04-29T08:05:30.691Z,27.63
2019-04-29T08:07:59.898Z,22.03
2019-04-29T08:10:29.820Z,25.20
2019-04-29T08:12:59.226Z,20.00
2019-04-29T08:15:27.190Z,22.60
2019-04-29T08:18:06.441Z,22.23
2019-04-29T08:20:25.912Z,28.30
2019-04-29T08:22:54.191Z,23.23
2019-04-29T08:25:25.954Z,22.80
2019-04-29T08:27:52.920Z,22.33
2019-04-29T08:30:20.710Z,20.50
2019-04-29T08:32:48.982Z,25.53
2019-04-29T08:35:17.550Z,22.90
2019-04-29T08:37:46.336Z,20.60
2019-04-29T08:40:16.903Z,20.77
2019-04-29T08:42:50.365Z,19.13
2019-04-29T08:45:39.074Z,21.13
2019-04-29T08:48:08.025Z,17.83
2019-04-29T08:50:35.904Z,18.70
2019-04-29T08:53:04.623Z,17.77
2019-04-29T08:55:36.160Z,17.13
2019-04-29T08:58:02.290Z,20.77
2019-04-29T09:00:30.465Z,17.27
2019-04-29T09:02:58.720Z,17.90
2019-04-29T09:05:27.443Z,17.50
2019-04-29T09:07:57.397Z,17.97
2019-04-29T09:10:25.425Z,21.27
2019-04-29T09:12:53.599Z,17.73
2019-04-29T09:15:21.465Z,19.83
2019-04-29T09:17:49.691Z,19.43
2019-04-29T09:20:18.490Z,18.50
2019-04-29T09:22:52.460Z,13.40
2019-04-29T09:25:45.767Z,35.67
2019-04-29T09:28:18.017Z,14.13
2019-04-29T09:30:43.679Z,15.53
2019-04-29T09:33:13.046Z,15.90
2019-04-29T09:35:42.534Z,22.23
2019-04-29T09:38:10.803Z,16.47
2019-04-29T09:40:45.700Z,13.37
2019-04-29T09:43:45.376Z,33.47
2019-04-29T09:46:18.629Z,19.07
2019-04-29T09:48:47.261Z,19.50
2019-04-29T09:51:17.637Z,14.40
2019-04-29T09:53:45.719Z,14.67
2019-04-29T09:56:13.652Z,10.00
2019-04-29T09:58:42.238Z,14.00
2019-04-29T10:01:20.917Z,12.87
2019-04-29T10:04:07.624Z,14.83
2019-04-29T10:06:36.966Z,12.73
2019-04-29T10:09:08.419Z,12.37
2019-04-29T10:11:36.861Z,15.73
2019-04-29T10:14:05.334Z,15.83
2019-04-29T10:17:01.867Z,12.93
2019-04-29T10:19:58.816Z,11.33
2019-04-29T10:22:27.093Z,14.83
2019-04-29T10:24:55.779Z,15.77
2019-04-29T10:27:24.370Z,12.93
2019-04-29T10:29:56.746Z,15.87
2019-04-29T10:32:24.612Z,16.37
2019-04-29T10:34:52.912Z,19.70
2019-04-29T10:37:23.810Z,16.20
2019-04-29T10:40:10.947Z,16.90
2019-04-29T10:42:40.081Z,12.83
2019-04-29T10:45:46.526Z,13.07
2019-04-29T10:48:22.167Z,18.97
2019-04-29T10:50:52.054Z,9.33
2019-04-29T10:53:20.672Z,12.60
2019-04-29T10:55:49.258Z,13.90
2019-04-29T10:58:21.955Z,13.33
2019-04-29T11:02:08.967Z,18.13
2019-04-29T11:04:36.133Z,17.53
2019-04-29T11:07:14.234Z,14.13
2019-04-29T11:09:55.975Z,12.17
2019-04-29T11:12:24.755Z,16.70
2019-04-29T11:14:52.612Z,14.27
2019-04-29T11:17:22.821Z,12.07
2019-04-29T11:19:51.047Z,15.43
2019-04-29T11:22:21.727Z,12.53
2019-04-29T11:25:07.981Z,17.37
2019-04-29T11:27:43.455Z,11.97
2019-04-29T11:30:15.232Z,12.53
2019-04-29T11:32:48.170Z,14.60
2019-04-29T11:35:24.613Z,12.87
2019-04-29T11:37:55.406Z,11.27
2019-04-29T11:40:26.041Z,11.33
2019-04-29T11:42:54.180Z,12.97
2019-04-29T11:45:22.366Z,7.90
2019-04-29T11:47:50.654Z,12.10
2019-04-29T11:50:37.852Z,11.13
2019-04-29T11:53:06.461Z,14.03
2019-04-29T11:55:35.062Z,12.00
2019-04-29T11:58:09.296Z,12.40
2019-04-29T12:00:55.475Z,10.40
2019-04-29T12:03:27.843Z,9.07
2019-04-29T12:05:59.242Z,19.90
2019-04-29T12:08:27.048Z,12.17
2019-04-29T12:11:06.499Z,10.50
2019-04-29T12:13:38.545Z,13.90
2019-04-29T12:16:35.050Z,15.33
2019-04-29T12:19:10.708Z,15.80
2019-04-29T12:21:39.643Z,8.33
2019-04-29T12:24:08.335Z,13.13
2019-04-29T12:26:42.937Z,12.47
2019-04-29T12:29:07.016Z,12.90
2019-04-29T12:31:54.567Z,9.97
2019-04-29T12:34:51.586Z,8.50
2019-04-29T12:37:54.260Z,12.60
2019-04-29T12:40:39.578Z,15.37
2019-04-29T12:43:26.017Z,9.93
2019-04-29T12:46:04.205Z,7.07
2019-04-29T12:48:32.588Z,10.57
2019-04-29T12:51:00.810Z,10.33
2019-04-29T12:53:29.496Z,7.50
2019-04-29T12:55:57.764Z,10.53
2019-04-29T12:58:26.038Z,9.43
2019-04-29T13:01:00.947Z,11.57
2019-04-29T13:03:49.246Z,16.00
2019-04-29T13:06:38.750Z,10.70
2019-04-29T13:09:01.724Z,7.13
2019-04-29T13:11:40.877Z,8.00
2019-04-29T13:14:01.926Z,10.37
2019-04-29T13:16:36.057Z,9.60
2019-04-29T13:19:19.908Z,12.63
2019-04-29T13:21:44.751Z,11.10
2019-04-29T13:24:22.428Z,7.97
2019-04-29T13:26:42.920Z,7.17
2019-04-29T13:29:25.828Z,10.60
2019-04-29T13:31:41.994Z,13.77
2019-04-29T13:34:23.707Z,9.00
2019-04-29T13:36:42.636Z,9.30
2019-04-29T13:39:10.521Z,9.07
2019-04-29T13:41:56.234Z,14.37
2019-04-29T13:44:10.065Z,10.30
2019-04-29T13:46:53.570Z,9.60
2019-04-29T13:49:34.947Z,8.23
2019-04-29T13:52:03.455Z,9.40
2019-04-29T13:54:31.810Z,11.87
2019-04-29T13:57:07.685Z,8.17
2019-04-29T13:59:37.565Z,11.87
2019-04-29T14:02:14.826Z,8.73
2019-04-29T14:04:46.338Z,10.40
2019-04-29T14:07:18.256Z,9.97
2019-04-29T14:09:47.730Z,8.93
2019-04-29T14:12:47.300Z,9.77
2019-04-29T14:14:45.257Z,11.00
2019-04-29T14:17:26.034Z,13.27
2019-04-29T14:19:44.427Z,9.70
2019-04-29T14:22:22.005Z,11.97
2019-04-29T14:24:42.733Z,11.83
2019-04-29T14:27:24.016Z,10.40
2019-04-29T14:29:41.707Z,14.77
2019-04-29T14:32:09.517Z,12.13
2019-04-29T14:34:50.072Z,13.73
2019-04-29T14:37:23.538Z,12.43
2019-04-29T14:39:48.401Z,9.20
2019-04-29T14:42:25.707Z,10.37
2019-04-29T14:45:23.006Z,8.07
2019-04-29T14:48:11.702Z,10.53
2019-04-29T14:50:40.569Z,13.67
2019-04-29T14:53:08.953Z,12.00
2019-04-29T14:55:37.233Z,10.93
2019-04-29T14:58:05.501Z,9.57
2019-04-29T15:00:59.634Z,12.10
2019-04-29T15:03:30.142Z,13.03
2019-04-29T15:05:58.136Z,13.00
2019-04-29T15:08:26.134Z,10.33
2019-04-29T15:10:54.697Z,7.50
2019-04-29T15:13:24.840Z,12.33
2019-04-29T15:16:04.752Z,9.83
2019-04-29T15:19:02.852Z,9.87
2019-04-29T15:21:55.339Z,12.27
2019-04-29T15:24:27.473Z,9.30
2019-04-29T15:26:54.232Z,14.37
2019-04-29T15:29:22.913Z,18.57
2019-04-29T15:31:51.212Z,6.13
2019-04-29T15:34:20.309Z,8.00
2019-04-29T15:36:49.005Z,9.23
2019-04-29T15:39:17.847Z,10.50
2019-04-29T15:41:47.608Z,7.80
2019-04-29T15:44:20.322Z,8.97
2019-04-29T15:46:47.652Z,11.17
2019-04-29T15:49:19.996Z,8.57
2019-04-29T15:51:49.326Z,9.37
2019-04-29T15:54:16.791Z,7.83
2019-04-29T15:56:45.394Z,8.43
2019-04-29T15:59:14.071Z,9.83
2019-04-29T16:01:42.935Z,10.23
2019-04-29T16:04:15.796Z,10.47
2019-04-29T16:07:03.386Z,12.27
2019-04-29T16:09:52.148Z,14.47
2019-04-29T16:12:24.070Z,17.60
2019-04-29T16:14:52.809Z,12.23
2019-04-29T16:17:21.186Z,17.43
2019-04-29T16:19:49.815Z,20.07
2019-04-29T16:22:19.811Z,16.00
2019-04-29T16:24:48.273Z,15.77
2019-04-29T16:27:16.638Z,14.93
2019-04-29T16:29:46.169Z,12.97
2019-04-29T16:32:22.257Z,16.33
2019-04-29T16:34:50.880Z,11.53
2019-04-29T16:37:24.506Z,14.83
2019-04-29T16:39:52.779Z,15.33
2019-04-29T16:42:34.247Z,20.70
2019-04-29T16:45:06.137Z,12.70
2019-04-29T16:47:31.969Z,17.30
2019-04-29T16:50:04.713Z,12.87
2019-04-29T16:52:31.250Z,16.27
2019-04-29T16:55:04.182Z,15.13
2019-04-29T16:57:30.658Z,13.03
2019-04-29T16:59:58.206Z,14.37
2019-04-29T17:02:26.480Z,13.00
2019-04-29T17:04:54.721Z,12.20
2019-04-29T17:07:23.456Z,12.70
2019-04-29T17:10:09.133Z,11.53
2019-04-29T17:12:40.750Z,16.10
2019-04-29T17:15:23.764Z,16.43
2019-04-29T17:17:39.665Z,13.33
2019-04-29T17:20:07.949Z,15.90
2019-04-29T17:22:43.384Z,15.53
2019-04-29T17:25:08.912Z,14.07
2019-04-29T17:27:56.374Z,19.73
2019-04-29T17:30:56.706Z,18.23
2019-04-29T17:33:35.742Z,17.70
2019-04-29T17:36:05.032Z,13.27
2019-04-29T17:38:33.178Z,13.07
2019-04-29T17:41:01.792Z,17.90
2019-04-29T17:43:49.907Z,16.30
2019-04-29T17:46:52.711Z,14.93
2019-04-29T17:49:30.820Z,19.83
2019-04-29T17:52:03.057Z,16.13
2019-04-29T17:54:34.880Z,19.67
2019-04-29T17:57:28.171Z,22.13
2019-04-29T18:00:18.976Z,15.13
2019-04-29T18:03:12.625Z,15.90
2019-04-29T18:05:58.918Z,34.93
2019-04-29T18:08:33.538Z,14.67
2019-04-29T18:11:04.750Z,14.97
2019-04-29T18:13:32.571Z,13.87
2019-04-29T18:16:04.310Z,18.12
2019-04-29T18:18:47.357Z,17.33
2019-04-29T18:21:32.027Z,16.43
2019-04-29T18:24:13.102Z,16.00
2019-04-29T18:26:48.271Z,17.23
2019-04-29T18:29:19.048Z,25.60
2019-04-29T18:31:47.720Z,17.20
2019-04-29T18:34:16.448Z,21.70
2019-04-29T18:36:45.822Z,18.90
2019-04-29T18:39:20.176Z,31.07
2019-04-29T18:41:48.410Z,20.00
2019-04-29T18:44:19.497Z,21.20
2019-04-29T18:46:53.533Z,20.27
2019-04-29T18:49:17.617Z,17.57
2019-04-29T18:51:45.884Z,20.07
2019-04-29T18:54:14.233Z,17.60
2019-04-29T18:56:42.162Z,21.40
2019-04-29T18:59:10.203Z,22.43
2019-04-29T19:01:38.824Z,22.43
2019-04-29T19:04:26.773Z,27.33
2019-04-29T19:06:59.401Z,25.07
2019-04-29T19:09:32.332Z,25.40
2019-04-29T19:11:58.907Z,23.57
2019-04-29T19:14:28.364Z,23.83
2019-04-29T19:17:00.077Z,24.73
2019-04-29T19:19:26.147Z,20.07
2019-04-29T19:21:55.887Z,21.73
2019-04-29T19:24:24.393Z,23.37
2019-04-29T19:26:55.646Z,18.63
2019-04-29T19:29:23.086Z,21.57
2019-04-29T19:31:51.796Z,20.90
2019-04-29T19:34:20.341Z,20.03
2019-04-29T19:36:50.627Z,19.10
2019-04-29T19:39:21.965Z,17.93
2019-04-29T19:41:50.429Z,27.60
2019-04-29T19:44:18.909Z,18.47
2019-04-29T19:46:47.411Z,15.83
2019-04-29T19:49:15.858Z,21.60
2019-04-29T19:51:47.248Z,19.03
2019-04-29T19:54:18.544Z,19.07
2019-04-29T19:56:43.984Z,18.60
2019-04-29T19:59:14.743Z,29.97
2019-04-29T20:01:46.446Z,37.17
2019-04-29T20:04:34.809Z,19.47
2019-04-29T20:07:07.303Z,15.77
2019-04-29T20:09:34.949Z,16.27
2019-04-29T20:12:11.312Z,15.97
2019-04-29T20:14:34.060Z,15.87
2019-04-29T20:17:24.623Z,14.87
2019-04-29T20:20:19.636Z,19.90
2019-04-29T20:22:51.054Z,16.90
2019-04-29T20:25:29.188Z,16.17
2019-04-29T20:27:49.944Z,17.77
2019-04-29T20:30:20.949Z,17.57
2019-04-29T20:32:48.849Z,17.53
2019-04-29T20:35:18.345Z,14.80
2019-04-29T20:37:47.763Z,15.33
2019-04-29T20:40:17.837Z,14.87
2019-04-29T20:42:48.937Z,20.93
2019-04-29T20:45:20.113Z,21.70
2019-04-29T20:47:47.657Z,28.77
2019-04-29T20:50:16.956Z,23.43
2019-04-29T20:53:16.726Z,21.40
2019-04-29T20:55:46.096Z,24.57
2019-04-29T20:58:15.647Z,22.27
2019-04-29T21:00:45.399Z,22.50
2019-04-29T21:03:14.495Z,21.30
2019-04-29T21:05:48.101Z,24.10
2019-04-29T21:08:19.115Z,22.50
2019-04-29T21:10:48.427Z,21.53
2019-04-29T21:13:42.851Z,25.53
2019-04-29T21:16:22.816Z,26.90
2019-04-29T21:18:53.215Z,27.37
2019-04-29T21:21:22.362Z,20.80
2019-04-29T21:23:51.160Z,26.47
2019-04-29T21:26:20.710Z,25.27
2019-04-29T21:28:49.320Z,25.07
2019-04-29T21:31:19.977Z,32.50
2019-04-29T21:33:50.785Z,24.57
2019-04-29T21:36:45.810Z,29.30
2019-04-29T21:39:36.425Z,33.83
2019-04-29T21:42:19.463Z,29.43
2019-04-29T21:44:49.062Z,33.23
2019-04-29T21:47:17.848Z,29.37
2019-04-29T21:49:49.908Z,31.67
2019-04-29T21:52:19.645Z,31.87
2019-04-29T21:54:49.280Z,28.70
2019-04-29T21:57:23.750Z,27.00
2019-04-29T21:59:49.439Z,30.43
2019-04-29T22:02:18.335Z,30.30
2019-04-29T22:04:49.632Z,33.43
2019-04-29T22:07:18.398Z,34.03
2019-04-29T22:09:49.994Z,33.47
2019-04-29T22:12:20.208Z,32.93
2019-04-29T22:14:52.853Z,29.97
2019-04-29T22:17:17.817Z,31.73
2019-04-29T22:19:46.122Z,36.00
2019-04-29T22:22:14.359Z,38.03
2019-04-29T22:24:42.283Z,36.53
2019-04-29T22:27:10.993Z,31.83
2019-04-29T22:29:39.485Z,35.90
2019-04-29T22:32:14.331Z,35.43
2019-04-29T22:34:37.664Z,39.33
2019-04-29T22:37:05.958Z,38.43
2019-04-29T22:39:35.711Z,39.67
2019-04-29T22:42:19.032Z,41.50
2019-04-29T22:44:47.377Z,40.07
2019-04-29T22:47:17.339Z,39.80
2019-04-29T22:49:46.628Z,42.93
2019-04-29T22:52:15.071Z,38.20
2019-04-29T22:54:45.516Z,40.03
2019-04-29T22:57:13.389Z,42.33
2019-04-29T22:59:41.307Z,41.50
2019-04-29T23:02:09.942Z,43.33
2019-04-29T23:04:38.123Z,36.23
2019-04-29T23:07:06.859Z,35.17
2019-04-29T23:09:36.608Z,33.63
2019-04-29T23:12:05.490Z,30.70
2019-04-29T23:14:34.056Z,32.93
2019-04-29T23:17:06.137Z,29.60
2019-04-29T23:19:32.144Z,28.40
2019-04-29T23:22:15.437Z,31.17
2019-04-29T23:25:02.558Z,26.27
2019-04-29T23:27:30.438Z,24.03
2019-04-29T23:29:58.722Z,25.57
2019-04-29T23:32:26.983Z,23.53
2019-04-29T23:34:55.022Z,24.90
2019-04-29T23:37:29.078Z,22.03
2019-04-29T23:39:55.753Z,21.77
2019-04-29T23:42:23.723Z,22.27
2019-04-29T23:44:51.686Z,23.00
2019-04-29T23:47:19.840Z,24.80
2019-04-29T23:49:48.137Z,25.00
2019-04-29T23:52:18.000Z,22.87
2019-04-29T23:54:48.558Z,19.13
2019-04-29T23:57:41.273Z,20.60
